AFL1186 UUEE-URWW
Flight info
| Callsign | AFL1186 |
|---|---|
| Flight time | 1h 27m |
| Altitude | 35000 |
| Route | TOGMO M56 ABAGI B105 NIMTA/K0837F340 B105 NATIT |
| Aircraft | A320/M-SDE3FGHIRWY/LB1 |
Departure
| Time | 2026-05-07 18:09 |
|---|---|
| Airport | Sheremetyevo International Airport (UUEE) |
Arrival
| Time | 2026-05-07 19:37 |
|---|---|
| Airport | Volgograd International Airport (URWW) |
| Time | Latitude | Longitude | Altitude | Speed | Heading |
|---|---|---|---|---|---|
| 2026-05-07 17:18 | 55.97807 | 37.41888 | 639 ft | 0 kts | 304° |
| 2026-05-07 18:02 | 55.97792 | 37.41922 | 640 ft | 4 kts | 315° |
| 2026-05-07 18:02 | 55.97772 | 37.41951 | 640 ft | 4 kts | 338° |
| 2026-05-07 18:03 | 55.97748 | 37.41957 | 639 ft | 4 kts | 28° |
| 2026-05-07 18:03 | 55.97738 | 37.41940 | 642 ft | 0 kts | 75° |
| 2026-05-07 18:05 | 55.97742 | 37.41969 | 640 ft | 8 kts | 75° |
| 2026-05-07 18:05 | 55.97762 | 37.42105 | 647 ft | 12 kts | 75° |
| 2026-05-07 18:05 | 55.97781 | 37.42234 | 644 ft | 10 kts | 75° |
| 2026-05-07 18:06 | 55.97788 | 37.42342 | 639 ft | 8 kts | 103° |
| 2026-05-07 18:06 | 55.97741 | 37.42401 | 639 ft | 12 kts | 142° |
| 2026-05-07 18:06 | 55.97742 | 37.42568 | 639 ft | 15 kts | 75° |
| 2026-05-07 18:06 | 55.97765 | 37.42723 | 642 ft | 6 kts | 78° |
| 2026-05-07 18:07 | 55.97764 | 37.42754 | 639 ft | 3 kts | 104° |
| 2026-05-07 18:07 | 55.97746 | 37.42788 | 639 ft | 3 kts | 146° |
| 2026-05-07 18:07 | 55.97737 | 37.42795 | 639 ft | 1 kts | 159° |
| 2026-05-07 18:07 | 55.97727 | 37.42799 | 641 ft | 0 kts | 166° |
| 2026-05-07 18:08 | 55.97726 | 37.42800 | 642 ft | 0 kts | 166° |
| 2026-05-07 18:08 | 55.97704 | 37.42810 | 638 ft | 10 kts | 166° |
| 2026-05-07 18:08 | 55.97613 | 37.42821 | 644 ft | 12 kts | 212° |
| 2026-05-07 18:08 | 55.97588 | 37.42726 | 643 ft | 12 kts | 254° |
| 2026-05-07 18:09 | 55.97500 | 37.42144 | 642 ft | 86 kts | 256° |
| 2026-05-07 18:09 | 55.97289 | 37.40745 | 642 ft | 145 kts | 255° |
| 2026-05-07 18:09 | 55.96981 | 37.38750 | 753 ft | 181 kts | 254° |
| 2026-05-07 18:09 | 55.96700 | 37.36609 | 1532 ft | 175 kts | 267° |
| 2026-05-07 18:10 | 55.97051 | 37.34579 | 2304 ft | 176 kts | 307° |
| 2026-05-07 18:10 | 55.98101 | 37.33363 | 2759 ft | 195 kts | 341° |
| 2026-05-07 18:10 | 55.99528 | 37.32942 | 2986 ft | 221 kts | 351° |
| 2026-05-07 18:10 | 56.01130 | 37.32704 | 3385 ft | 241 kts | 352° |
| 2026-05-07 18:11 | 56.02858 | 37.32492 | 4091 ft | 248 kts | 352° |
| 2026-05-07 18:11 | 56.04863 | 37.32310 | 4964 ft | 254 kts | 352° |
| 2026-05-07 18:11 | 56.06650 | 37.32178 | 5719 ft | 260 kts | 352° |
| 2026-05-07 18:12 | 56.08471 | 37.32065 | 6452 ft | 265 kts | 352° |
| 2026-05-07 18:12 | 56.10336 | 37.31977 | 7105 ft | 275 kts | 352° |
| 2026-05-07 18:12 | 56.12308 | 37.31889 | 7675 ft | 284 kts | 352° |
| 2026-05-07 18:12 | 56.14289 | 37.32210 | 8568 ft | 293 kts | 12° |
| 2026-05-07 18:13 | 56.16111 | 37.33990 | 9344 ft | 308 kts | 39° |
| 2026-05-07 18:13 | 56.17422 | 37.37075 | 9996 ft | 315 kts | 67° |
| 2026-05-07 18:13 | 56.17919 | 37.40870 | 10716 ft | 312 kts | 94° |
| 2026-05-07 18:13 | 56.17596 | 37.44664 | 11453 ft | 307 kts | 110° |
| 2026-05-07 18:14 | 56.17011 | 37.48345 | 12196 ft | 308 kts | 112° |
| 2026-05-07 18:14 | 56.16383 | 37.52034 | 12905 ft | 310 kts | 114° |
| 2026-05-07 18:14 | 56.15478 | 37.55497 | 13621 ft | 304 kts | 131° |
| 2026-05-07 18:14 | 56.14034 | 37.58163 | 14222 ft | 295 kts | 153° |
| 2026-05-07 18:15 | 56.12216 | 37.59701 | 14817 ft | 287 kts | 169° |
| 2026-05-07 18:15 | 56.10303 | 37.60808 | 15421 ft | 291 kts | 169° |
| 2026-05-07 18:15 | 56.08372 | 37.61928 | 16023 ft | 295 kts | 168° |
| 2026-05-07 18:15 | 56.06430 | 37.63206 | 16621 ft | 300 kts | 165° |
| 2026-05-07 18:16 | 56.04483 | 37.64610 | 17228 ft | 304 kts | 164° |
| 2026-05-07 18:16 | 56.02520 | 37.66082 | 17825 ft | 308 kts | 163° |
| 2026-05-07 18:16 | 56.00539 | 37.67580 | 18405 ft | 310 kts | 163° |
| 2026-05-07 18:16 | 55.98538 | 37.69084 | 18941 ft | 313 kts | 163° |
| 2026-05-07 18:17 | 55.96522 | 37.70582 | 19462 ft | 316 kts | 163° |
| 2026-05-07 18:17 | 55.94501 | 37.72153 | 19799 ft | 317 kts | 157° |
| 2026-05-07 18:17 | 55.92658 | 37.74287 | 20039 ft | 323 kts | 146° |
| 2026-05-07 18:17 | 55.91007 | 37.77112 | 20467 ft | 335 kts | 134° |
| 2026-05-07 18:18 | 55.89654 | 37.80550 | 20939 ft | 343 kts | 122° |
| 2026-05-07 18:18 | 55.88570 | 37.84368 | 21432 ft | 349 kts | 112° |
| 2026-05-07 18:18 | 55.87879 | 37.88597 | 21672 ft | 363 kts | 107° |
| 2026-05-07 18:18 | 55.87222 | 37.93033 | 21809 ft | 378 kts | 107° |
| 2026-05-07 18:19 | 55.86556 | 37.97638 | 21945 ft | 391 kts | 106° |
| 2026-05-07 18:19 | 55.85873 | 38.02391 | 22212 ft | 400 kts | 106° |
| 2026-05-07 18:19 | 55.85175 | 38.07212 | 22652 ft | 404 kts | 106° |
| 2026-05-07 18:19 | 55.84465 | 38.12065 | 23102 ft | 407 kts | 107° |
| 2026-05-07 18:20 | 55.83740 | 38.16960 | 23554 ft | 410 kts | 107° |
| 2026-05-07 18:20 | 55.83008 | 38.21865 | 23919 ft | 413 kts | 107° |
| 2026-05-07 18:20 | 55.82269 | 38.26815 | 24309 ft | 415 kts | 106° |
| 2026-05-07 18:20 | 55.81526 | 38.31791 | 24715 ft | 417 kts | 106° |
| 2026-05-07 18:21 | 55.80777 | 38.36788 | 25111 ft | 419 kts | 106° |
| 2026-05-07 18:21 | 55.80023 | 38.41806 | 25508 ft | 421 kts | 106° |
| 2026-05-07 18:21 | 55.79262 | 38.46844 | 25889 ft | 423 kts | 106° |
| 2026-05-07 18:21 | 55.78493 | 38.51900 | 26272 ft | 425 kts | 107° |
| 2026-05-07 18:22 | 55.77716 | 38.56977 | 26650 ft | 427 kts | 107° |
| 2026-05-07 18:22 | 55.77463 | 38.58625 | 26777 ft | 427 kts | 107° |
| 2026-05-07 18:22 | 55.76147 | 38.67194 | 27389 ft | 431 kts | 107° |
| 2026-05-07 18:22 | 55.75357 | 38.72335 | 27754 ft | 433 kts | 107° |
| 2026-05-07 18:23 | 55.74573 | 38.77431 | 28113 ft | 435 kts | 107° |
| 2026-05-07 18:23 | 55.73775 | 38.82614 | 28473 ft | 436 kts | 106° |
| 2026-05-07 18:23 | 55.72975 | 38.87807 | 28853 ft | 437 kts | 106° |
| 2026-05-07 18:23 | 55.72433 | 38.91317 | 29091 ft | 438 kts | 107° |
| 2026-05-07 18:24 | 55.71624 | 38.96535 | 29471 ft | 439 kts | 107° |
| 2026-05-07 18:24 | 55.70807 | 39.01768 | 29710 ft | 443 kts | 107° |
| 2026-05-07 18:24 | 55.69974 | 39.07067 | 29878 ft | 449 kts | 107° |
| 2026-05-07 18:24 | 55.69125 | 39.12433 | 30007 ft | 455 kts | 107° |
| 2026-05-07 18:25 | 55.68266 | 39.17864 | 30131 ft | 460 kts | 107° |
| 2026-05-07 18:25 | 55.67395 | 39.23356 | 30253 ft | 465 kts | 107° |
| 2026-05-07 18:25 | 55.66515 | 39.28903 | 30383 ft | 470 kts | 107° |
| 2026-05-07 18:25 | 55.65627 | 39.34503 | 30507 ft | 474 kts | 107° |
| 2026-05-07 18:26 | 55.64730 | 39.40140 | 30710 ft | 476 kts | 106° |
| 2026-05-07 18:26 | 55.63829 | 39.45778 | 31006 ft | 476 kts | 106° |
| 2026-05-07 18:26 | 55.62926 | 39.51395 | 31310 ft | 475 kts | 106° |
| 2026-05-07 18:26 | 55.62018 | 39.57014 | 31631 ft | 475 kts | 106° |
| 2026-05-07 18:27 | 55.61105 | 39.62622 | 31934 ft | 474 kts | 106° |
| 2026-05-07 18:27 | 55.60191 | 39.68222 | 32242 ft | 474 kts | 106° |
| 2026-05-07 18:27 | 55.59278 | 39.73815 | 32555 ft | 473 kts | 106° |
| 2026-05-07 18:27 | 55.58362 | 39.79404 | 32835 ft | 474 kts | 107° |
| 2026-05-07 18:28 | 55.57443 | 39.84998 | 33104 ft | 474 kts | 106° |
| 2026-05-07 18:28 | 55.56524 | 39.90587 | 33399 ft | 474 kts | 106° |
| 2026-05-07 18:28 | 55.55602 | 39.96164 | 33754 ft | 471 kts | 107° |
| 2026-05-07 18:28 | 55.54449 | 40.01561 | 34087 ft | 469 kts | 116° |
| 2026-05-07 18:29 | 55.52953 | 40.06660 | 34352 ft | 467 kts | 119° |
| 2026-05-07 18:29 | 55.51424 | 40.11720 | 34613 ft | 467 kts | 119° |
| 2026-05-07 18:29 | 55.49898 | 40.16778 | 34837 ft | 467 kts | 119° |
| 2026-05-07 18:30 | 55.46839 | 40.26913 | 34900 ft | 469 kts | 119° |
| 2026-05-07 18:30 | 55.43764 | 40.37029 | 34908 ft | 469 kts | 119° |
| 2026-05-07 18:31 | 55.40677 | 40.47133 | 34903 ft | 468 kts | 119° |
| 2026-05-07 18:31 | 55.37597 | 40.57213 | 34906 ft | 468 kts | 119° |
| 2026-05-07 18:32 | 55.34509 | 40.67272 | 34910 ft | 468 kts | 119° |
| 2026-05-07 18:32 | 55.31415 | 40.77319 | 34913 ft | 468 kts | 119° |
| 2026-05-07 18:33 | 55.28303 | 40.87341 | 34911 ft | 467 kts | 120° |
| 2026-05-07 18:33 | 55.24907 | 40.96992 | 34915 ft | 464 kts | 134° |
| 2026-05-07 18:33 | 55.22490 | 41.00676 | 34911 ft | 459 kts | 148° |
| 2026-05-07 18:34 | 55.19816 | 41.03733 | 34906 ft | 459 kts | 149° |
| 2026-05-07 18:34 | 55.14440 | 41.09765 | 34903 ft | 459 kts | 149° |
| 2026-05-07 18:35 | 55.09050 | 41.15776 | 34911 ft | 460 kts | 149° |
| 2026-05-07 18:35 | 55.03664 | 41.21803 | 34910 ft | 460 kts | 149° |
| 2026-05-07 18:36 | 54.98274 | 41.27810 | 34903 ft | 460 kts | 149° |
| 2026-05-07 18:36 | 54.92877 | 41.33782 | 34902 ft | 460 kts | 149° |
| 2026-05-07 18:37 | 54.87483 | 41.39759 | 34911 ft | 460 kts | 149° |
| 2026-05-07 18:37 | 54.82092 | 41.45727 | 34909 ft | 460 kts | 149° |
| 2026-05-07 18:38 | 54.76706 | 41.51665 | 34908 ft | 459 kts | 149° |
| 2026-05-07 18:38 | 54.71314 | 41.57577 | 34915 ft | 458 kts | 149° |
| 2026-05-07 18:39 | 54.65919 | 41.63456 | 34916 ft | 458 kts | 149° |
| 2026-05-07 18:39 | 54.60528 | 41.69325 | 34914 ft | 458 kts | 149° |
| 2026-05-07 18:40 | 54.55140 | 41.75169 | 34912 ft | 458 kts | 149° |
| 2026-05-07 18:40 | 54.49758 | 41.81012 | 34917 ft | 457 kts | 149° |
| 2026-05-07 18:41 | 54.44377 | 41.86832 | 34913 ft | 457 kts | 149° |
| 2026-05-07 18:41 | 54.38992 | 41.92625 | 34914 ft | 456 kts | 149° |
| 2026-05-07 18:42 | 54.33608 | 41.98403 | 34917 ft | 456 kts | 149° |
| 2026-05-07 18:42 | 54.28221 | 42.04161 | 34912 ft | 456 kts | 149° |
| 2026-05-07 18:43 | 54.22833 | 42.09899 | 34913 ft | 456 kts | 149° |
| 2026-05-07 18:43 | 54.17437 | 42.15625 | 34914 ft | 457 kts | 149° |
| 2026-05-07 18:44 | 54.12040 | 42.21346 | 34922 ft | 457 kts | 149° |
| 2026-05-07 18:44 | 54.06640 | 42.27051 | 34921 ft | 457 kts | 149° |
| 2026-05-07 18:45 | 54.01237 | 42.32739 | 34929 ft | 457 kts | 149° |
| 2026-05-07 18:45 | 53.95837 | 42.38401 | 34929 ft | 457 kts | 149° |
| 2026-05-07 18:46 | 53.90429 | 42.44062 | 34936 ft | 457 kts | 149° |
| 2026-05-07 18:46 | 53.85019 | 42.49708 | 34933 ft | 457 kts | 149° |
| 2026-05-07 18:47 | 53.79603 | 42.55330 | 34937 ft | 456 kts | 149° |
| 2026-05-07 18:47 | 53.74190 | 42.60950 | 34945 ft | 457 kts | 149° |
| 2026-05-07 18:48 | 53.68769 | 42.66543 | 34952 ft | 457 kts | 150° |
| 2026-05-07 18:48 | 53.63022 | 42.71059 | 34953 ft | 456 kts | 157° |
| 2026-05-07 18:49 | 53.57193 | 42.75274 | 34953 ft | 456 kts | 157° |
| 2026-05-07 18:49 | 53.51376 | 42.79472 | 34956 ft | 455 kts | 157° |
| 2026-05-07 18:50 | 53.45556 | 42.83655 | 34960 ft | 455 kts | 157° |
| 2026-05-07 18:50 | 53.39739 | 42.87832 | 34958 ft | 455 kts | 157° |
| 2026-05-07 18:51 | 53.33920 | 42.91992 | 34957 ft | 455 kts | 157° |
| 2026-05-07 18:51 | 53.28214 | 42.96056 | 34948 ft | 431 kts | 157° |
| 2026-05-07 18:52 | 53.22805 | 42.99900 | 34950 ft | 419 kts | 157° |
| 2026-05-07 18:52 | 53.17451 | 43.03710 | 34950 ft | 418 kts | 157° |
| 2026-05-07 18:53 | 53.12094 | 43.07515 | 34950 ft | 418 kts | 157° |
| 2026-05-07 18:53 | 53.06773 | 43.11451 | 34950 ft | 418 kts | 156° |
| 2026-05-07 18:54 | 53.01469 | 43.15443 | 34956 ft | 418 kts | 156° |
| 2026-05-07 18:54 | 52.96160 | 43.19405 | 34955 ft | 418 kts | 156° |
| 2026-05-07 18:55 | 52.90846 | 43.23325 | 34956 ft | 418 kts | 156° |
| 2026-05-07 18:55 | 52.85525 | 43.27241 | 34955 ft | 418 kts | 156° |
| 2026-05-07 18:56 | 52.80206 | 43.31147 | 34955 ft | 418 kts | 156° |
| 2026-05-07 18:56 | 52.74893 | 43.35046 | 34952 ft | 418 kts | 156° |
| 2026-05-07 18:57 | 52.69581 | 43.38931 | 34946 ft | 418 kts | 156° |
| 2026-05-07 18:57 | 52.64263 | 43.42802 | 34943 ft | 418 kts | 156° |
| 2026-05-07 18:58 | 52.58936 | 43.46662 | 34942 ft | 418 kts | 156° |
| 2026-05-07 18:58 | 52.53612 | 43.50523 | 34943 ft | 419 kts | 156° |
| 2026-05-07 18:59 | 52.48278 | 43.54384 | 34948 ft | 419 kts | 156° |
| 2026-05-07 18:59 | 52.42941 | 43.58234 | 34948 ft | 419 kts | 156° |
| 2026-05-07 19:00 | 52.37599 | 43.62078 | 34950 ft | 419 kts | 156° |
| 2026-05-07 19:00 | 52.32250 | 43.65908 | 34957 ft | 420 kts | 156° |
| 2026-05-07 19:01 | 52.26902 | 43.69739 | 34955 ft | 420 kts | 156° |
| 2026-05-07 19:01 | 52.21552 | 43.73556 | 34949 ft | 420 kts | 156° |
| 2026-05-07 19:02 | 52.16199 | 43.77365 | 34947 ft | 420 kts | 156° |
| 2026-05-07 19:02 | 52.10849 | 43.81168 | 34948 ft | 420 kts | 156° |
| 2026-05-07 19:03 | 52.05489 | 43.84964 | 34951 ft | 420 kts | 156° |
| 2026-05-07 19:03 | 52.01028 | 43.88105 | 34951 ft | 420 kts | 156° |
| 2026-05-07 19:04 | 51.95662 | 43.91886 | 34952 ft | 420 kts | 156° |
| 2026-05-07 19:04 | 51.90259 | 43.95693 | 34953 ft | 421 kts | 156° |
| 2026-05-07 19:05 | 51.84895 | 43.99458 | 34955 ft | 421 kts | 156° |
| 2026-05-07 19:05 | 51.79516 | 44.03204 | 34960 ft | 421 kts | 156° |
| 2026-05-07 19:06 | 51.74135 | 44.06951 | 34955 ft | 421 kts | 156° |
| 2026-05-07 19:06 | 51.66061 | 44.12575 | 34955 ft | 421 kts | 156° |
| 2026-05-07 19:07 | 51.60601 | 44.16354 | 34973 ft | 434 kts | 156° |
| 2026-05-07 19:07 | 51.54967 | 44.20244 | 34978 ft | 447 kts | 156° |
| 2026-05-07 19:08 | 51.49210 | 44.24198 | 34970 ft | 457 kts | 156° |
| 2026-05-07 19:08 | 51.43303 | 44.28254 | 34969 ft | 459 kts | 156° |
| 2026-05-07 19:09 | 51.37432 | 44.32281 | 34972 ft | 460 kts | 156° |
| 2026-05-07 19:09 | 51.31548 | 44.36293 | 34972 ft | 460 kts | 156° |
| 2026-05-07 19:10 | 51.25667 | 44.40305 | 34480 ft | 459 kts | 156° |
| 2026-05-07 19:10 | 51.22732 | 44.42302 | 34086 ft | 458 kts | 156° |
| 2026-05-07 19:10 | 51.19791 | 44.44288 | 33932 ft | 459 kts | 158° |
| 2026-05-07 19:11 | 51.13557 | 44.46486 | 33971 ft | 462 kts | 177° |
| 2026-05-07 19:11 | 51.07140 | 44.46076 | 33975 ft | 462 kts | 184° |
| 2026-05-07 19:12 | 51.00728 | 44.45461 | 33978 ft | 462 kts | 183° |
| 2026-05-07 19:12 | 50.94308 | 44.44876 | 33978 ft | 463 kts | 183° |
| 2026-05-07 19:13 | 50.87875 | 44.44282 | 33978 ft | 463 kts | 183° |
| 2026-05-07 19:13 | 50.81438 | 44.43678 | 33982 ft | 463 kts | 183° |
| 2026-05-07 19:14 | 50.75044 | 44.43090 | 33980 ft | 463 kts | 183° |
| 2026-05-07 19:14 | 50.68567 | 44.42496 | 33978 ft | 463 kts | 183° |
| 2026-05-07 19:15 | 50.62175 | 44.41912 | 33975 ft | 463 kts | 183° |
| 2026-05-07 19:15 | 50.55735 | 44.41314 | 33971 ft | 464 kts | 183° |
| 2026-05-07 19:16 | 50.49246 | 44.40718 | 33596 ft | 465 kts | 183° |
| 2026-05-07 19:16 | 50.46015 | 44.40419 | 33315 ft | 465 kts | 183° |
| 2026-05-07 19:16 | 50.42782 | 44.40118 | 33042 ft | 466 kts | 183° |
| 2026-05-07 19:17 | 50.39546 | 44.39821 | 32475 ft | 467 kts | 183° |
| 2026-05-07 19:17 | 50.36266 | 44.39523 | 31326 ft | 476 kts | 183° |
| 2026-05-07 19:17 | 50.32997 | 44.39225 | 30358 ft | 479 kts | 183° |
| 2026-05-07 19:17 | 50.29643 | 44.38918 | 29101 ft | 486 kts | 183° |
| 2026-05-07 19:18 | 50.26296 | 44.38611 | 28575 ft | 476 kts | 182° |
| 2026-05-07 19:18 | 50.23006 | 44.38315 | 27849 ft | 471 kts | 182° |
| 2026-05-07 19:18 | 50.19748 | 44.38022 | 27155 ft | 466 kts | 182° |
| 2026-05-07 19:18 | 50.16526 | 44.37729 | 26466 ft | 461 kts | 182° |
| 2026-05-07 19:19 | 50.13335 | 44.37443 | 25814 ft | 457 kts | 182° |
| 2026-05-07 19:19 | 50.10170 | 44.37164 | 25136 ft | 454 kts | 182° |
| 2026-05-07 19:19 | 50.07027 | 44.36882 | 24475 ft | 451 kts | 182° |
| 2026-05-07 19:19 | 50.03868 | 44.36595 | 23809 ft | 448 kts | 182° |
| 2026-05-07 19:20 | 50.00765 | 44.36314 | 23106 ft | 445 kts | 182° |
| 2026-05-07 19:20 | 49.97688 | 44.36038 | 22470 ft | 440 kts | 182° |
| 2026-05-07 19:20 | 49.94648 | 44.35762 | 21910 ft | 435 kts | 182° |
| 2026-05-07 19:20 | 49.91683 | 44.35491 | 21356 ft | 430 kts | 182° |
| 2026-05-07 19:21 | 49.88714 | 44.35224 | 20826 ft | 425 kts | 182° |
| 2026-05-07 19:21 | 49.85780 | 44.34964 | 20312 ft | 420 kts | 182° |
| 2026-05-07 19:21 | 49.82886 | 44.34705 | 19942 ft | 412 kts | 182° |
| 2026-05-07 19:21 | 49.80095 | 44.34453 | 19807 ft | 389 kts | 182° |
| 2026-05-07 19:22 | 49.77476 | 44.34220 | 19676 ft | 365 kts | 182° |
| 2026-05-07 19:22 | 49.74993 | 44.34001 | 19316 ft | 352 kts | 182° |
| 2026-05-07 19:22 | 49.72526 | 44.33785 | 18968 ft | 348 kts | 182° |
| 2026-05-07 19:22 | 49.70121 | 44.33576 | 18636 ft | 346 kts | 182° |
| 2026-05-07 19:23 | 49.67740 | 44.33370 | 18373 ft | 337 kts | 182° |
| 2026-05-07 19:23 | 49.65420 | 44.33168 | 17980 ft | 332 kts | 182° |
| 2026-05-07 19:23 | 49.63124 | 44.32968 | 17675 ft | 329 kts | 182° |
| 2026-05-07 19:23 | 49.60845 | 44.32770 | 17338 ft | 327 kts | 182° |
| 2026-05-07 19:24 | 49.58608 | 44.32575 | 17003 ft | 325 kts | 182° |
| 2026-05-07 19:24 | 49.56352 | 44.32389 | 16676 ft | 324 kts | 181° |
| 2026-05-07 19:24 | 49.54075 | 44.32329 | 16348 ft | 322 kts | 179° |
| 2026-05-07 19:24 | 49.51839 | 44.32365 | 16031 ft | 321 kts | 178° |
| 2026-05-07 19:25 | 49.49619 | 44.32433 | 15636 ft | 317 kts | 177° |
| 2026-05-07 19:25 | 49.47419 | 44.32503 | 15076 ft | 315 kts | 178° |
| 2026-05-07 19:25 | 49.45233 | 44.32563 | 14537 ft | 313 kts | 178° |
| 2026-05-07 19:25 | 49.43069 | 44.32612 | 14091 ft | 308 kts | 178° |
| 2026-05-07 19:26 | 49.40942 | 44.32648 | 13623 ft | 304 kts | 178° |
| 2026-05-07 19:26 | 49.38837 | 44.32680 | 13084 ft | 301 kts | 178° |
| 2026-05-07 19:26 | 49.36750 | 44.32710 | 12538 ft | 299 kts | 179° |
| 2026-05-07 19:26 | 49.34681 | 44.32737 | 12043 ft | 298 kts | 178° |
| 2026-05-07 19:27 | 49.32614 | 44.32764 | 11761 ft | 296 kts | 178° |
| 2026-05-07 19:27 | 49.30561 | 44.32792 | 11464 ft | 294 kts | 178° |
| 2026-05-07 19:27 | 49.28518 | 44.32821 | 11157 ft | 293 kts | 178° |
| 2026-05-07 19:27 | 49.26482 | 44.32850 | 10842 ft | 292 kts | 178° |
| 2026-05-07 19:28 | 49.24457 | 44.32880 | 10544 ft | 290 kts | 178° |
| 2026-05-07 19:28 | 49.22446 | 44.32910 | 10227 ft | 289 kts | 179° |
| 2026-05-07 19:28 | 49.20440 | 44.32938 | 9941 ft | 288 kts | 179° |
| 2026-05-07 19:28 | 49.18443 | 44.32966 | 9612 ft | 286 kts | 179° |
| 2026-05-07 19:29 | 49.16457 | 44.33025 | 9270 ft | 284 kts | 174° |
| 2026-05-07 19:29 | 49.14527 | 44.33582 | 8939 ft | 281 kts | 160° |
| 2026-05-07 19:29 | 49.12743 | 44.34758 | 8577 ft | 278 kts | 150° |
| 2026-05-07 19:29 | 49.11024 | 44.36112 | 8229 ft | 278 kts | 151° |
| 2026-05-07 19:30 | 49.09310 | 44.37455 | 7873 ft | 276 kts | 151° |
| 2026-05-07 19:30 | 49.07604 | 44.38784 | 7565 ft | 273 kts | 151° |
| 2026-05-07 19:30 | 49.05924 | 44.40089 | 7275 ft | 270 kts | 151° |
| 2026-05-07 19:30 | 49.04254 | 44.41385 | 6923 ft | 269 kts | 151° |
| 2026-05-07 19:31 | 49.02591 | 44.42676 | 6602 ft | 267 kts | 151° |
| 2026-05-07 19:31 | 49.00936 | 44.43963 | 6245 ft | 267 kts | 151° |
| 2026-05-07 19:31 | 48.99254 | 44.45269 | 5565 ft | 278 kts | 152° |
| 2026-05-07 19:31 | 48.97530 | 44.46607 | 4872 ft | 279 kts | 152° |
| 2026-05-07 19:32 | 48.95801 | 44.47943 | 4207 ft | 278 kts | 152° |
| 2026-05-07 19:32 | 48.94086 | 44.49265 | 3586 ft | 275 kts | 153° |
| 2026-05-07 19:32 | 48.92415 | 44.50518 | 3331 ft | 263 kts | 154° |
| 2026-05-07 19:32 | 48.90796 | 44.51689 | 3075 ft | 253 kts | 155° |
| 2026-05-07 19:33 | 48.89218 | 44.52820 | 2823 ft | 248 kts | 155° |
| 2026-05-07 19:33 | 48.87665 | 44.53933 | 2596 ft | 245 kts | 155° |
| 2026-05-07 19:33 | 48.86082 | 44.54655 | 2494 ft | 232 kts | 184° |
| 2026-05-07 19:33 | 48.84663 | 44.53831 | 2500 ft | 216 kts | 227° |
| 2026-05-07 19:34 | 48.83844 | 44.51981 | 2511 ft | 211 kts | 245° |
| 2026-05-07 19:34 | 48.83207 | 44.49980 | 2483 ft | 211 kts | 247° |
| 2026-05-07 19:34 | 48.82582 | 44.47979 | 2280 ft | 208 kts | 246° |
| 2026-05-07 19:34 | 48.81972 | 44.46040 | 2028 ft | 200 kts | 247° |
| 2026-05-07 19:35 | 48.81391 | 44.44202 | 1794 ft | 186 kts | 247° |
| 2026-05-07 19:35 | 48.80856 | 44.42509 | 1550 ft | 171 kts | 247° |
| 2026-05-07 19:35 | 48.80371 | 44.40977 | 1326 ft | 153 kts | 246° |
| 2026-05-07 19:35 | 48.79931 | 44.39573 | 1107 ft | 144 kts | 245° |
| 2026-05-07 19:36 | 48.79511 | 44.38228 | 929 ft | 139 kts | 245° |
| 2026-05-07 19:36 | 48.79094 | 44.36910 | 748 ft | 138 kts | 244° |
| 2026-05-07 19:36 | 48.78676 | 44.35609 | 565 ft | 137 kts | 244° |
| 2026-05-07 19:36 | 48.78268 | 44.34339 | 463 ft | 125 kts | 244° |
| 2026-05-07 19:37 | 48.77967 | 44.33373 | 452 ft | 77 kts | 244° |
| 2026-05-07 19:37 | 48.77781 | 44.32787 | 446 ft | 53 kts | 244° |
| 2026-05-07 19:37 | 48.77633 | 44.32320 | 434 ft | 46 kts | 244° |
| 2026-05-07 19:37 | 48.77533 | 44.32005 | 425 ft | 18 kts | 244° |
| 2026-05-07 19:38 | 48.77516 | 44.31841 | 423 ft | 16 kts | 306° |
| 2026-05-07 19:38 | 48.77557 | 44.31800 | 437 ft | 0 kts | 333° |
| 2026-05-07 19:38 | 48.77615 | 44.31772 | 449 ft | 16 kts | 2° |
| 2026-05-07 19:38 | 48.77679 | 44.31887 | 450 ft | 14 kts | 65° |
| 2026-05-07 19:39 | 48.77718 | 44.32012 | 450 ft | 12 kts | 64° |
| 2026-05-07 19:39 | 48.77757 | 44.32137 | 450 ft | 15 kts | 64° |
| 2026-05-07 19:39 | 48.77815 | 44.32319 | 451 ft | 21 kts | 64° |
| 2026-05-07 19:39 | 48.77858 | 44.32456 | 451 ft | 22 kts | 64° |
| 2026-05-07 19:40 | 48.77952 | 44.32749 | 451 ft | 24 kts | 64° |
| 2026-05-07 19:40 | 48.78026 | 44.32984 | 452 ft | 25 kts | 64° |
| 2026-05-07 19:40 | 48.78105 | 44.33232 | 452 ft | 27 kts | 64° |
| 2026-05-07 19:40 | 48.78188 | 44.33493 | 452 ft | 28 kts | 64° |
| 2026-05-07 19:41 | 48.78275 | 44.33764 | 453 ft | 29 kts | 64° |
| 2026-05-07 19:41 | 48.78361 | 44.34034 | 456 ft | 26 kts | 65° |
| 2026-05-07 19:41 | 48.78412 | 44.34175 | 461 ft | 12 kts | 42° |
| 2026-05-07 19:41 | 48.78502 | 44.34177 | 455 ft | 16 kts | 345° |
| 2026-05-07 19:42 | 48.78613 | 44.34139 | 452 ft | 11 kts | 0° |
| 2026-05-07 19:42 | 48.78651 | 44.34176 | 452 ft | 10 kts | 56° |
| 2026-05-07 19:42 | 48.78685 | 44.34312 | 451 ft | 18 kts | 70° |
| 2026-05-07 19:42 | 48.78731 | 44.34490 | 451 ft | 18 kts | 68° |
| 2026-05-07 19:43 | 48.78755 | 44.34586 | 452 ft | 6 kts | 68° |
| 2026-05-07 19:43 | 48.78769 | 44.34636 | 452 ft | 6 kts | 68° |
| 2026-05-07 19:43 | 48.78790 | 44.34722 | 452 ft | 9 kts | 69° |
| 2026-05-07 19:43 | 48.78814 | 44.34821 | 452 ft | 14 kts | 70° |
| 2026-05-07 19:44 | 48.78853 | 44.34980 | 452 ft | 16 kts | 69° |
| 2026-05-07 19:44 | 48.78907 | 44.35103 | 452 ft | 13 kts | 48° |
| 2026-05-07 19:44 | 48.78946 | 44.35219 | 452 ft | 12 kts | 70° |
| 2026-05-07 19:44 | 48.78972 | 44.35326 | 451 ft | 10 kts | 69° |
| 2026-05-07 19:45 | 48.79004 | 44.35404 | 452 ft | 7 kts | 20° |
| 2026-05-07 19:45 | 48.79049 | 44.35386 | 452 ft | 6 kts | 339° |
| 2026-05-07 19:45 | 48.79053 | 44.35384 | 452 ft | 0 kts | 339° |